sensor_id;sensor_type;location;lat;lon;timestamp;temperature;humidity
36594;DHT22;22603;47.900;8.146;2023-08-06T00:01:00;12.50;99.90
36594;DHT22;22603;47.900;8.146;2023-08-06T00:03:47;12.50;99.90
36594;DHT22;22603;47.900;8.146;2023-08-06T00:06:35;12.50;99.90
36594;DHT22;22603;47.900;8.146;2023-08-06T00:09:22;12.60;99.90
36594;DHT22;22603;47.900;8.146;2023-08-06T00:12:08;12.60;99.90
36594;DHT22;22603;47.900;8.146;2023-08-06T00:14:55;12.50;99.90
36594;DHT22;22603;47.900;8.146;2023-08-06T00:17:41;12.40;99.90
36594;DHT22;22603;47.900;8.146;2023-08-06T00:20:28;12.20;99.90
36594;DHT22;22603;47.900;8.146;2023-08-06T00:23:16;12.10;99.90
36594;DHT22;22603;47.900;8.146;2023-08-06T00:26:03;12.10;99.90
36594;DHT22;22603;47.900;8.146;2023-08-06T00:28:50;12.10;99.90
36594;DHT22;22603;47.900;8.146;2023-08-06T00:31:36;12.10;99.90
36594;DHT22;22603;47.900;8.146;2023-08-06T00:34:23;12.00;99.90
36594;DHT22;22603;47.900;8.146;2023-08-06T00:37:10;12.00;99.90
36594;DHT22;22603;47.900;8.146;2023-08-06T00:39:58;12.00;99.90
36594;DHT22;22603;47.900;8.146;2023-08-06T00:42:44;12.00;99.90
36594;DHT22;22603;47.900;8.146;2023-08-06T00:45:34;12.00;99.90
36594;DHT22;22603;47.900;8.146;2023-08-06T00:48:21;12.00;99.90
36594;DHT22;22603;47.900;8.146;2023-08-06T00:51:09;12.00;99.90
36594;DHT22;22603;47.900;8.146;2023-08-06T00:53:57;12.10;99.90
36594;DHT22;22603;47.900;8.146;2023-08-06T00:56:45;12.00;99.90
36594;DHT22;22603;47.900;8.146;2023-08-06T00:59:33;12.10;99.90
36594;DHT22;22603;47.900;8.146;2023-08-06T01:02:21;12.00;99.90
36594;DHT22;22603;47.900;8.146;2023-08-06T01:05:07;12.00;99.90
36594;DHT22;22603;47.900;8.146;2023-08-06T01:08:06;12.00;99.90
36594;DHT22;22603;47.900;8.146;2023-08-06T01:11:05;12.00;99.90
36594;DHT22;22603;47.900;8.146;2023-08-06T01:14:02;12.10;99.90
36594;DHT22;22603;47.900;8.146;2023-08-06T01:16:50;12.10;99.90
36594;DHT22;22603;47.900;8.146;2023-08-06T01:19:37;12.00;99.90
36594;DHT22;22603;47.900;8.146;2023-08-06T01:22:25;12.10;99.90
36594;DHT22;22603;47.900;8.146;2023-08-06T01:25:13;12.10;99.90
36594;DHT22;22603;47.900;8.146;2023-08-06T01:28:08;12.10;99.90
36594;DHT22;22603;47.900;8.146;2023-08-06T01:30:59;12.10;99.90
36594;DHT22;22603;47.900;8.146;2023-08-06T01:33:49;12.10;99.90
36594;DHT22;22603;47.900;8.146;2023-08-06T01:36:37;12.10;99.90
36594;DHT22;22603;47.900;8.146;2023-08-06T01:39:25;12.10;99.90
36594;DHT22;22603;47.900;8.146;2023-08-06T01:42:12;12.20;99.90
36594;DHT22;22603;47.900;8.146;2023-08-06T01:45:01;12.20;99.90
36594;DHT22;22603;47.900;8.146;2023-08-06T01:47:48;12.20;99.90
36594;DHT22;22603;47.900;8.146;2023-08-06T01:50:35;12.20;99.90
36594;DHT22;22603;47.900;8.146;2023-08-06T01:53:22;12.20;99.90
36594;DHT22;22603;47.900;8.146;2023-08-06T01:56:10;12.20;99.90
36594;DHT22;22603;47.900;8.146;2023-08-06T01:58:56;12.20;99.90
36594;DHT22;22603;47.900;8.146;2023-08-06T02:01:43;12.20;99.90
36594;DHT22;22603;47.900;8.146;2023-08-06T02:04:30;12.20;99.90
36594;DHT22;22603;47.900;8.146;2023-08-06T02:07:16;12.20;99.90
36594;DHT22;22603;47.900;8.146;2023-08-06T02:10:03;12.20;99.90
36594;DHT22;22603;47.900;8.146;2023-08-06T02:12:51;12.20;99.90
36594;DHT22;22603;47.900;8.146;2023-08-06T02:15:42;12.20;99.90
36594;DHT22;22603;47.900;8.146;2023-08-06T02:18:29;12.10;99.90
36594;DHT22;22603;47.900;8.146;2023-08-06T02:21:15;12.10;99.90
36594;DHT22;22603;47.900;8.146;2023-08-06T02:24:02;12.10;99.90
36594;DHT22;22603;47.900;8.146;2023-08-06T02:26:49;12.10;99.90
36594;DHT22;22603;47.900;8.146;2023-08-06T02:29:40;12.10;99.90
36594;DHT22;22603;47.900;8.146;2023-08-06T02:32:26;12.10;99.90
36594;DHT22;22603;47.900;8.146;2023-08-06T02:35:15;11.90;99.90
36594;DHT22;22603;47.900;8.146;2023-08-06T02:38:02;11.90;99.90
36594;DHT22;22603;47.900;8.146;2023-08-06T02:40:49;11.80;99.90
36594;DHT22;22603;47.900;8.146;2023-08-06T02:43:35;11.80;99.90
36594;DHT22;22603;47.900;8.146;2023-08-06T02:46:24;11.80;99.90
36594;DHT22;22603;47.900;8.146;2023-08-06T02:49:10;11.70;99.90
36594;DHT22;22603;47.900;8.146;2023-08-06T02:51:57;11.60;99.90
36594;DHT22;22603;47.900;8.146;2023-08-06T02:54:43;11.60;99.90
36594;DHT22;22603;47.900;8.146;2023-08-06T02:57:30;11.50;99.90
36594;DHT22;22603;47.900;8.146;2023-08-06T03:00:17;11.50;99.90
36594;DHT22;22603;47.900;8.146;2023-08-06T03:03:05;11.50;99.90
36594;DHT22;22603;47.900;8.146;2023-08-06T03:05:52;11.40;99.90
36594;DHT22;22603;47.900;8.146;2023-08-06T03:08:39;11.40;99.90
36594;DHT22;22603;47.900;8.146;2023-08-06T03:11:25;11.50;99.90
36594;DHT22;22603;47.900;8.146;2023-08-06T03:14:12;11.40;99.90
36594;DHT22;22603;47.900;8.146;2023-08-06T03:16:58;11.40;99.90
36594;DHT22;22603;47.900;8.146;2023-08-06T03:19:46;11.30;99.90
36594;DHT22;22603;47.900;8.146;2023-08-06T03:22:33;11.30;99.90
36594;DHT22;22603;47.900;8.146;2023-08-06T03:25:20;11.30;99.90
36594;DHT22;22603;47.900;8.146;2023-08-06T03:28:06;11.20;99.90
36594;DHT22;22603;47.900;8.146;2023-08-06T03:30:59;11.20;99.90
36594;DHT22;22603;47.900;8.146;2023-08-06T03:33:46;11.10;99.90
36594;DHT22;22603;47.900;8.146;2023-08-06T03:36:34;11.10;99.90
36594;DHT22;22603;47.900;8.146;2023-08-06T03:39:21;11.10;99.90
36594;DHT22;22603;47.900;8.146;2023-08-06T03:42:08;11.10;99.90
36594;DHT22;22603;47.900;8.146;2023-08-06T03:44:54;11.00;99.90
36594;DHT22;22603;47.900;8.146;2023-08-06T03:47:41;11.00;99.90
36594;DHT22;22603;47.900;8.146;2023-08-06T03:50:28;10.90;99.90
36594;DHT22;22603;47.900;8.146;2023-08-06T03:53:16;10.80;99.90
36594;DHT22;22603;47.900;8.146;2023-08-06T03:56:03;10.70;99.90
36594;DHT22;22603;47.900;8.146;2023-08-06T03:58:49;10.70;99.90
36594;DHT22;22603;47.900;8.146;2023-08-06T04:01:36;10.70;99.90
36594;DHT22;22603;47.900;8.146;2023-08-06T04:04:22;10.70;99.90
36594;DHT22;22603;47.900;8.146;2023-08-06T04:07:09;10.70;99.90
36594;DHT22;22603;47.900;8.146;2023-08-06T04:09:59;10.60;99.90
36594;DHT22;22603;47.900;8.146;2023-08-06T04:12:46;10.60;99.90
36594;DHT22;22603;47.900;8.146;2023-08-06T04:15:33;10.60;99.90
36594;DHT22;22603;47.900;8.146;2023-08-06T04:18:20;10.50;99.90
36594;DHT22;22603;47.900;8.146;2023-08-06T04:21:07;10.50;99.90
36594;DHT22;22603;47.900;8.146;2023-08-06T04:23:53;10.50;99.90
36594;DHT22;22603;47.900;8.146;2023-08-06T04:26:41;10.50;99.90
36594;DHT22;22603;47.900;8.146;2023-08-06T04:29:29;10.50;99.90
36594;DHT22;22603;47.900;8.146;2023-08-06T04:32:16;10.50;99.90
36594;DHT22;22603;47.900;8.146;2023-08-06T04:35:02;10.60;99.90
36594;DHT22;22603;47.900;8.146;2023-08-06T04:37:49;10.60;99.90
36594;DHT22;22603;47.900;8.146;2023-08-06T04:40:36;10.50;99.90
36594;DHT22;22603;47.900;8.146;2023-08-06T04:43:24;10.50;99.90
36594;DHT22;22603;47.900;8.146;2023-08-06T04:46:11;10.50;99.90
36594;DHT22;22603;47.900;8.146;2023-08-06T04:48:58;10.50;99.90
36594;DHT22;22603;47.900;8.146;2023-08-06T04:51:44;10.50;99.90
36594;DHT22;22603;47.900;8.146;2023-08-06T04:54:31;10.60;99.90
36594;DHT22;22603;47.900;8.146;2023-08-06T04:57:18;10.60;99.90
36594;DHT22;22603;47.900;8.146;2023-08-06T05:00:08;10.60;99.90
36594;DHT22;22603;47.900;8.146;2023-08-06T05:02:54;10.60;99.90
36594;DHT22;22603;47.900;8.146;2023-08-06T05:05:41;10.60;99.90
36594;DHT22;22603;47.900;8.146;2023-08-06T05:08:28;10.60;99.90
36594;DHT22;22603;47.900;8.146;2023-08-06T05:11:14;10.60;99.90
36594;DHT22;22603;47.900;8.146;2023-08-06T05:14:01;10.60;99.90
36594;DHT22;22603;47.900;8.146;2023-08-06T05:16:49;10.50;99.90
36594;DHT22;22603;47.900;8.146;2023-08-06T05:19:35;10.60;99.90
36594;DHT22;22603;47.900;8.146;2023-08-06T05:22:22;10.50;99.90
36594;DHT22;22603;47.900;8.146;2023-08-06T05:25:09;10.50;99.90
36594;DHT22;22603;47.900;8.146;2023-08-06T05:27:55;10.50;99.90
36594;DHT22;22603;47.900;8.146;2023-08-06T05:30:42;10.60;99.90
36594;DHT22;22603;47.900;8.146;2023-08-06T05:33:30;10.50;99.90
36594;DHT22;22603;47.900;8.146;2023-08-06T05:36:16;10.50;99.90
36594;DHT22;22603;47.900;8.146;2023-08-06T05:39:04;10.50;99.90
36594;DHT22;22603;47.900;8.146;2023-08-06T05:41:51;10.60;99.90
36594;DHT22;22603;47.900;8.146;2023-08-06T05:44:38;10.50;99.90
36594;DHT22;22603;47.900;8.146;2023-08-06T05:47:24;10.50;99.90
36594;DHT22;22603;47.900;8.146;2023-08-06T05:50:12;10.50;99.90
36594;DHT22;22603;47.900;8.146;2023-08-06T05:53:00;10.50;99.90
36594;DHT22;22603;47.900;8.146;2023-08-06T05:55:47;10.50;99.90
36594;DHT22;22603;47.900;8.146;2023-08-06T05:58:33;10.40;99.90
36594;DHT22;22603;47.900;8.146;2023-08-06T06:01:20;10.40;99.90
36594;DHT22;22603;47.900;8.146;2023-08-06T06:04:07;10.50;99.90
36594;DHT22;22603;47.900;8.146;2023-08-06T06:06:55;10.40;99.90
36594;DHT22;22603;47.900;8.146;2023-08-06T06:09:43;10.40;99.90
36594;DHT22;22603;47.900;8.146;2023-08-06T06:12:29;10.30;99.90
36594;DHT22;22603;47.900;8.146;2023-08-06T06:15:16;10.40;99.90
36594;DHT22;22603;47.900;8.146;2023-08-06T06:18:06;10.30;99.90
36594;DHT22;22603;47.900;8.146;2023-08-06T06:20:53;10.30;99.90
36594;DHT22;22603;47.900;8.146;2023-08-06T06:23:41;10.30;99.90
36594;DHT22;22603;47.900;8.146;2023-08-06T06:26:28;10.30;99.90
36594;DHT22;22603;47.900;8.146;2023-08-06T06:29:15;10.30;99.90
36594;DHT22;22603;47.900;8.146;2023-08-06T06:32:01;10.30;99.90
36594;DHT22;22603;47.900;8.146;2023-08-06T06:34:48;10.30;99.90
36594;DHT22;22603;47.900;8.146;2023-08-06T06:37:35;10.30;99.90
36594;DHT22;22603;47.900;8.146;2023-08-06T06:40:23;10.30;99.90
36594;DHT22;22603;47.900;8.146;2023-08-06T06:43:14;10.30;99.90
36594;DHT22;22603;47.900;8.146;2023-08-06T06:46:01;10.30;99.90
36594;DHT22;22603;47.900;8.146;2023-08-06T06:48:47;10.40;99.90
36594;DHT22;22603;47.900;8.146;2023-08-06T06:51:34;10.40;99.90
36594;DHT22;22603;47.900;8.146;2023-08-06T06:54:24;10.40;99.90
36594;DHT22;22603;47.900;8.146;2023-08-06T06:57:11;10.40;99.90
36594;DHT22;22603;47.900;8.146;2023-08-06T06:59:58;10.40;99.90
36594;DHT22;22603;47.900;8.146;2023-08-06T07:02:45;10.40;99.90
36594;DHT22;22603;47.900;8.146;2023-08-06T07:05:31;10.50;99.90
36594;DHT22;22603;47.900;8.146;2023-08-06T07:08:19;10.40;99.90
36594;DHT22;22603;47.900;8.146;2023-08-06T07:11:08;10.50;99.90
36594;DHT22;22603;47.900;8.146;2023-08-06T07:13:59;10.50;99.90
36594;DHT22;22603;47.900;8.146;2023-08-06T07:16:46;10.40;99.90
36594;DHT22;22603;47.900;8.146;2023-08-06T07:19:33;10.40;99.90
36594;DHT22;22603;47.900;8.146;2023-08-06T07:22:20;10.40;99.90
36594;DHT22;22603;47.900;8.146;2023-08-06T07:25:07;10.40;99.90
36594;DHT22;22603;47.900;8.146;2023-08-06T07:27:53;10.50;99.90
36594;DHT22;22603;47.900;8.146;2023-08-06T07:30:44;10.60;99.90
36594;DHT22;22603;47.900;8.146;2023-08-06T07:33:31;10.60;99.90
36594;DHT22;22603;47.900;8.146;2023-08-06T07:36:17;10.60;99.90
36594;DHT22;22603;47.900;8.146;2023-08-06T07:39:06;10.60;99.90
36594;DHT22;22603;47.900;8.146;2023-08-06T07:41:54;10.50;99.90
36594;DHT22;22603;47.900;8.146;2023-08-06T07:44:40;10.50;99.90
36594;DHT22;22603;47.900;8.146;2023-08-06T07:47:29;10.50;99.90
36594;DHT22;22603;47.900;8.146;2023-08-06T07:50:16;10.50;99.90
36594;DHT22;22603;47.900;8.146;2023-08-06T07:53:03;10.50;99.90
36594;DHT22;22603;47.900;8.146;2023-08-06T07:55:53;10.60;99.90
36594;DHT22;22603;47.900;8.146;2023-08-06T07:58:39;10.80;99.90
36594;DHT22;22603;47.900;8.146;2023-08-06T08:01:26;10.90;99.90
36594;DHT22;22603;47.900;8.146;2023-08-06T08:04:17;11.00;99.90
36594;DHT22;22603;47.900;8.146;2023-08-06T08:07:07;11.20;99.90
36594;DHT22;22603;47.900;8.146;2023-08-06T08:09:53;11.10;99.90
36594;DHT22;22603;47.900;8.146;2023-08-06T08:12:40;11.10;99.90
36594;DHT22;22603;47.900;8.146;2023-08-06T08:15:29;11.20;99.90
36594;DHT22;22603;47.900;8.146;2023-08-06T08:18:16;11.30;99.90
36594;DHT22;22603;47.900;8.146;2023-08-06T08:21:04;11.30;99.90
36594;DHT22;22603;47.900;8.146;2023-08-06T08:23:51;11.20;99.90
36594;DHT22;22603;47.900;8.146;2023-08-06T08:26:38;11.30;99.90
36594;DHT22;22603;47.900;8.146;2023-08-06T08:29:25;11.30;99.90
36594;DHT22;22603;47.900;8.146;2023-08-06T08:32:11;11.40;99.90
36594;DHT22;22603;47.900;8.146;2023-08-06T08:34:58;11.30;99.90
36594;DHT22;22603;47.900;8.146;2023-08-06T08:37:46;11.40;99.90
36594;DHT22;22603;47.900;8.146;2023-08-06T08:40:33;11.50;99.90
36594;DHT22;22603;47.900;8.146;2023-08-06T08:43:22;11.50;99.90
36594;DHT22;22603;47.900;8.146;2023-08-06T08:46:11;11.40;99.90
36594;DHT22;22603;47.900;8.146;2023-08-06T08:48:59;11.30;99.90
36594;DHT22;22603;47.900;8.146;2023-08-06T08:51:47;11.30;99.90
36594;DHT22;22603;47.900;8.146;2023-08-06T08:54:38;11.30;99.90
36594;DHT22;22603;47.900;8.146;2023-08-06T08:57:25;11.30;99.90
36594;DHT22;22603;47.900;8.146;2023-08-06T09:00:11;11.30;99.90
36594;DHT22;22603;47.900;8.146;2023-08-06T09:03:00;11.20;99.90
36594;DHT22;22603;47.900;8.146;2023-08-06T09:05:50;11.00;99.90
36594;DHT22;22603;47.900;8.146;2023-08-06T09:08:43;10.90;99.90
36594;DHT22;22603;47.900;8.146;2023-08-06T09:11:39;10.80;99.90
36594;DHT22;22603;47.900;8.146;2023-08-06T09:14:28;10.80;99.90
36594;DHT22;22603;47.900;8.146;2023-08-06T09:17:16;10.80;99.90
36594;DHT22;22603;47.900;8.146;2023-08-06T09:20:12;10.80;99.90
36594;DHT22;22603;47.900;8.146;2023-08-06T09:23:07;10.90;99.90
36594;DHT22;22603;47.900;8.146;2023-08-06T09:25:56;11.10;99.90
36594;DHT22;22603;47.900;8.146;2023-08-06T09:28:44;10.90;99.90
36594;DHT22;22603;47.900;8.146;2023-08-06T09:31:33;11.10;99.90
36594;DHT22;22603;47.900;8.146;2023-08-06T09:34:21;11.40;99.90
36594;DHT22;22603;47.900;8.146;2023-08-06T09:37:09;11.50;99.90
36594;DHT22;22603;47.900;8.146;2023-08-06T09:39:57;11.60;99.90
36594;DHT22;22603;47.900;8.146;2023-08-06T09:42:43;11.70;99.90
36594;DHT22;22603;47.900;8.146;2023-08-06T09:45:33;11.80;99.90
36594;DHT22;22603;47.900;8.146;2023-08-06T09:48:24;11.80;99.90
36594;DHT22;22603;47.900;8.146;2023-08-06T09:51:13;11.80;99.90
36594;DHT22;22603;47.900;8.146;2023-08-06T09:54:01;11.80;99.90
36594;DHT22;22603;47.900;8.146;2023-08-06T09:57:06;11.90;99.90
36594;DHT22;22603;47.900;8.146;2023-08-06T09:59:53;11.80;99.90
36594;DHT22;22603;47.900;8.146;2023-08-06T10:02:41;11.80;99.90
36594;DHT22;22603;47.900;8.146;2023-08-06T10:05:31;11.60;99.90
36594;DHT22;22603;47.900;8.146;2023-08-06T10:08:18;11.60;99.90
36594;DHT22;22603;47.900;8.146;2023-08-06T10:11:05;11.60;99.90
36594;DHT22;22603;47.900;8.146;2023-08-06T10:13:55;11.70;99.90
36594;DHT22;22603;47.900;8.146;2023-08-06T10:16:44;11.90;99.90
36594;DHT22;22603;47.900;8.146;2023-08-06T10:19:32;12.10;99.90
36594;DHT22;22603;47.900;8.146;2023-08-06T10:22:19;12.30;99.90
36594;DHT22;22603;47.900;8.146;2023-08-06T10:25:07;12.60;99.90
36594;DHT22;22603;47.900;8.146;2023-08-06T10:27:54;12.70;99.90
36594;DHT22;22603;47.900;8.146;2023-08-06T10:30:42;13.00;99.90
36594;DHT22;22603;47.900;8.146;2023-08-06T10:33:41;13.70;99.90
36594;DHT22;22603;47.900;8.146;2023-08-06T10:36:30;13.90;99.90
36594;DHT22;22603;47.900;8.146;2023-08-06T10:39:18;13.60;99.90
36594;DHT22;22603;47.900;8.146;2023-08-06T10:42:26;13.40;99.90
36594;DHT22;22603;47.900;8.146;2023-08-06T10:45:15;13.30;99.90
36594;DHT22;22603;47.900;8.146;2023-08-06T10:48:02;12.80;99.90
36594;DHT22;22603;47.900;8.146;2023-08-06T10:50:49;12.60;99.90
36594;DHT22;22603;47.900;8.146;2023-08-06T10:53:41;12.50;99.90
36594;DHT22;22603;47.900;8.146;2023-08-06T10:56:28;12.70;99.90
36594;DHT22;22603;47.900;8.146;2023-08-06T10:59:15;12.90;99.90
36594;DHT22;22603;47.900;8.146;2023-08-06T11:02:03;12.90;99.90
36594;DHT22;22603;47.900;8.146;2023-08-06T11:04:50;12.70;99.90
36594;DHT22;22603;47.900;8.146;2023-08-06T11:07:38;12.90;99.90
36594;DHT22;22603;47.900;8.146;2023-08-06T11:10:26;13.40;99.90
36594;DHT22;22603;47.900;8.146;2023-08-06T11:13:16;13.30;99.90
36594;DHT22;22603;47.900;8.146;2023-08-06T11:16:03;13.60;99.90
36594;DHT22;22603;47.900;8.146;2023-08-06T11:18:51;13.50;99.90
36594;DHT22;22603;47.900;8.146;2023-08-06T11:21:39;13.70;99.90
36594;DHT22;22603;47.900;8.146;2023-08-06T11:24:28;13.70;99.90
36594;DHT22;22603;47.900;8.146;2023-08-06T11:27:17;13.60;99.90
36594;DHT22;22603;47.900;8.146;2023-08-06T11:30:05;13.50;99.90
36594;DHT22;22603;47.900;8.146;2023-08-06T11:32:51;13.50;99.90
36594;DHT22;22603;47.900;8.146;2023-08-06T11:35:38;13.40;99.90
36594;DHT22;22603;47.900;8.146;2023-08-06T11:38:26;13.50;99.90
36594;DHT22;22603;47.900;8.146;2023-08-06T11:41:13;13.40;99.90
36594;DHT22;22603;47.900;8.146;2023-08-06T11:44:01;13.20;99.90
36594;DHT22;22603;47.900;8.146;2023-08-06T11:46:52;12.80;99.90
36594;DHT22;22603;47.900;8.146;2023-08-06T11:49:42;12.60;99.90
36594;DHT22;22603;47.900;8.146;2023-08-06T11:52:31;12.40;99.90
36594;DHT22;22603;47.900;8.146;2023-08-06T11:55:18;12.30;99.90
36594;DHT22;22603;47.900;8.146;2023-08-06T11:58:10;12.20;99.90
36594;DHT22;22603;47.900;8.146;2023-08-06T12:00:59;12.00;99.90
36594;DHT22;22603;47.900;8.146;2023-08-06T12:03:46;11.70;99.90
36594;DHT22;22603;47.900;8.146;2023-08-06T12:06:41;11.70;99.90
36594;DHT22;22603;47.900;8.146;2023-08-06T12:09:28;11.80;99.90
36594;DHT22;22603;47.900;8.146;2023-08-06T12:12:15;11.90;99.90
36594;DHT22;22603;47.900;8.146;2023-08-06T12:15:04;11.90;99.90
36594;DHT22;22603;47.900;8.146;2023-08-06T12:17:53;11.80;99.90
36594;DHT22;22603;47.900;8.146;2023-08-06T12:20:40;11.80;99.90
36594;DHT22;22603;47.900;8.146;2023-08-06T12:23:27;12.00;99.90
36594;DHT22;22603;47.900;8.146;2023-08-06T12:26:13;12.10;99.90
36594;DHT22;22603;47.900;8.146;2023-08-06T12:29:00;12.10;99.90
36594;DHT22;22603;47.900;8.146;2023-08-06T12:31:48;12.00;99.90
36594;DHT22;22603;47.900;8.146;2023-08-06T12:34:37;12.30;99.90
36594;DHT22;22603;47.900;8.146;2023-08-06T12:37:37;12.30;99.90
36594;DHT22;22603;47.900;8.146;2023-08-06T12:40:25;12.40;99.90
36594;DHT22;22603;47.900;8.146;2023-08-06T12:43:21;12.40;99.90
36594;DHT22;22603;47.900;8.146;2023-08-06T12:46:08;12.40;99.90
36594;DHT22;22603;47.900;8.146;2023-08-06T12:48:55;12.40;99.90
36594;DHT22;22603;47.900;8.146;2023-08-06T12:51:44;12.30;99.90
36594;DHT22;22603;47.900;8.146;2023-08-06T12:54:31;12.20;99.90
36594;DHT22;22603;47.900;8.146;2023-08-06T12:57:22;12.10;99.90
36594;DHT22;22603;47.900;8.146;2023-08-06T13:00:09;12.70;99.90
36594;DHT22;22603;47.900;8.146;2023-08-06T13:02:56;12.60;99.90
36594;DHT22;22603;47.900;8.146;2023-08-06T13:05:43;12.80;99.90
36594;DHT22;22603;47.900;8.146;2023-08-06T13:08:32;13.20;99.90
36594;DHT22;22603;47.900;8.146;2023-08-06T13:11:19;13.70;99.90
36594;DHT22;22603;47.900;8.146;2023-08-06T13:14:06;13.50;99.90
36594;DHT22;22603;47.900;8.146;2023-08-06T13:16:54;13.60;99.90
36594;DHT22;22603;47.900;8.146;2023-08-06T13:19:41;13.40;99.90
36594;DHT22;22603;47.900;8.146;2023-08-06T13:22:28;13.20;99.90
36594;DHT22;22603;47.900;8.146;2023-08-06T13:25:19;13.00;99.90
36594;DHT22;22603;47.900;8.146;2023-08-06T13:28:05;12.70;99.90
36594;DHT22;22603;47.900;8.146;2023-08-06T13:30:52;11.90;99.90
36594;DHT22;22603;47.900;8.146;2023-08-06T13:33:39;11.60;99.90
36594;DHT22;22603;47.900;8.146;2023-08-06T13:36:26;11.50;99.90
36594;DHT22;22603;47.900;8.146;2023-08-06T13:39:14;11.40;99.90
36594;DHT22;22603;47.900;8.146;2023-08-06T13:42:04;11.50;99.90
36594;DHT22;22603;47.900;8.146;2023-08-06T13:44:51;12.20;99.90
36594;DHT22;22603;47.900;8.146;2023-08-06T13:47:38;12.70;99.90
36594;DHT22;22603;47.900;8.146;2023-08-06T13:50:25;12.70;99.90
36594;DHT22;22603;47.900;8.146;2023-08-06T13:53:13;12.70;99.90
36594;DHT22;22603;47.900;8.146;2023-08-06T13:55:59;12.50;99.90
36594;DHT22;22603;47.900;8.146;2023-08-06T13:58:50;12.50;99.90
36594;DHT22;22603;47.900;8.146;2023-08-06T14:01:37;12.40;99.90
36594;DHT22;22603;47.900;8.146;2023-08-06T14:04:35;12.30;99.90
36594;DHT22;22603;47.900;8.146;2023-08-06T14:07:23;12.40;99.90
36594;DHT22;22603;47.900;8.146;2023-08-06T14:10:10;12.40;99.90
36594;DHT22;22603;47.900;8.146;2023-08-06T14:12:57;12.50;99.90
36594;DHT22;22603;47.900;8.146;2023-08-06T14:15:56;12.20;99.90
36594;DHT22;22603;47.900;8.146;2023-08-06T14:18:46;12.30;99.90
36594;DHT22;22603;47.900;8.146;2023-08-06T14:21:33;12.30;99.90
36594;DHT22;22603;47.900;8.146;2023-08-06T14:24:19;12.10;99.90
36594;DHT22;22603;47.900;8.146;2023-08-06T14:27:06;12.00;99.90
36594;DHT22;22603;47.900;8.146;2023-08-06T14:29:53;11.80;99.90
36594;DHT22;22603;47.900;8.146;2023-08-06T14:32:41;12.00;99.90
36594;DHT22;22603;47.900;8.146;2023-08-06T14:35:28;11.90;99.90
36594;DHT22;22603;47.900;8.146;2023-08-06T14:38:15;12.10;99.90
36594;DHT22;22603;47.900;8.146;2023-08-06T14:41:02;12.40;99.90
36594;DHT22;22603;47.900;8.146;2023-08-06T14:43:51;12.50;99.90
36594;DHT22;22603;47.900;8.146;2023-08-06T14:46:38;12.60;99.90
36594;DHT22;22603;47.900;8.146;2023-08-06T14:49:30;12.70;99.90
36594;DHT22;22603;47.900;8.146;2023-08-06T14:52:17;12.60;99.90
36594;DHT22;22603;47.900;8.146;2023-08-06T14:55:04;12.50;99.90
36594;DHT22;22603;47.900;8.146;2023-08-06T14:57:52;12.20;99.90
36594;DHT22;22603;47.900;8.146;2023-08-06T15:00:39;12.00;99.90
36594;DHT22;22603;47.900;8.146;2023-08-06T15:03:26;11.90;99.90
36594;DHT22;22603;47.900;8.146;2023-08-06T15:06:15;11.90;99.90
36594;DHT22;22603;47.900;8.146;2023-08-06T15:09:02;11.90;99.90
36594;DHT22;22603;47.900;8.146;2023-08-06T15:11:49;12.10;99.90
36594;DHT22;22603;47.900;8.146;2023-08-06T15:14:35;12.10;99.90
36594;DHT22;22603;47.900;8.146;2023-08-06T15:17:22;12.20;99.90
36594;DHT22;22603;47.900;8.146;2023-08-06T15:20:11;12.30;99.90
36594;DHT22;22603;47.900;8.146;2023-08-06T15:22:59;12.60;99.90
36594;DHT22;22603;47.900;8.146;2023-08-06T15:25:46;12.60;99.90
36594;DHT22;22603;47.900;8.146;2023-08-06T15:28:32;12.40;99.90
36594;DHT22;22603;47.900;8.146;2023-08-06T15:31:20;12.30;99.90
36594;DHT22;22603;47.900;8.146;2023-08-06T15:34:07;12.00;99.90
36594;DHT22;22603;47.900;8.146;2023-08-06T15:36:54;12.00;99.90
36594;DHT22;22603;47.900;8.146;2023-08-06T15:39:42;12.00;99.90
36594;DHT22;22603;47.900;8.146;2023-08-06T15:42:29;12.10;99.90
36594;DHT22;22603;47.900;8.146;2023-08-06T15:45:16;12.30;99.90
36594;DHT22;22603;47.900;8.146;2023-08-06T15:48:03;12.20;99.90
36594;DHT22;22603;47.900;8.146;2023-08-06T15:50:50;12.10;99.90
36594;DHT22;22603;47.900;8.146;2023-08-06T15:53:37;11.90;99.90
36594;DHT22;22603;47.900;8.146;2023-08-06T15:56:25;11.70;99.90
36594;DHT22;22603;47.900;8.146;2023-08-06T15:59:22;11.60;99.90
36594;DHT22;22603;47.900;8.146;2023-08-06T16:02:09;11.40;99.90
36594;DHT22;22603;47.900;8.146;2023-08-06T16:04:59;11.30;99.90
36594;DHT22;22603;47.900;8.146;2023-08-06T16:07:48;11.30;99.90
36594;DHT22;22603;47.900;8.146;2023-08-06T16:10:35;11.30;99.90
36594;DHT22;22603;47.900;8.146;2023-08-06T16:13:24;11.30;99.90
36594;DHT22;22603;47.900;8.146;2023-08-06T16:16:11;11.40;99.90
36594;DHT22;22603;47.900;8.146;2023-08-06T16:18:57;11.30;99.90
36594;DHT22;22603;47.900;8.146;2023-08-06T16:21:44;11.30;99.90
36594;DHT22;22603;47.900;8.146;2023-08-06T16:24:31;11.30;99.90
36594;DHT22;22603;47.900;8.146;2023-08-06T16:27:17;11.50;99.90
36594;DHT22;22603;47.900;8.146;2023-08-06T16:30:06;11.50;99.90
36594;DHT22;22603;47.900;8.146;2023-08-06T16:32:53;11.40;99.90
36594;DHT22;22603;47.900;8.146;2023-08-06T16:35:41;11.40;99.90
36594;DHT22;22603;47.900;8.146;2023-08-06T16:38:29;11.40;99.90
36594;DHT22;22603;47.900;8.146;2023-08-06T16:41:15;11.30;99.90
36594;DHT22;22603;47.900;8.146;2023-08-06T16:44:03;11.10;99.90
36594;DHT22;22603;47.900;8.146;2023-08-06T16:46:52;11.20;99.90
36594;DHT22;22603;47.900;8.146;2023-08-06T16:49:39;11.20;99.90
36594;DHT22;22603;47.900;8.146;2023-08-06T16:52:26;11.30;99.90
36594;DHT22;22603;47.900;8.146;2023-08-06T16:55:13;11.40;99.90
36594;DHT22;22603;47.900;8.146;2023-08-06T16:58:00;11.50;99.90
36594;DHT22;22603;47.900;8.146;2023-08-06T17:00:48;11.40;99.90
36594;DHT22;22603;47.900;8.146;2023-08-06T17:03:36;11.20;99.90
36594;DHT22;22603;47.900;8.146;2023-08-06T17:06:26;11.20;99.90
36594;DHT22;22603;47.900;8.146;2023-08-06T17:09:12;11.10;99.90
36594;DHT22;22603;47.900;8.146;2023-08-06T17:11:59;11.30;99.90
36594;DHT22;22603;47.900;8.146;2023-08-06T17:14:46;11.20;99.90
36594;DHT22;22603;47.900;8.146;2023-08-06T17:17:33;11.20;99.90
36594;DHT22;22603;47.900;8.146;2023-08-06T17:20:20;11.20;99.90
36594;DHT22;22603;47.900;8.146;2023-08-06T17:23:07;11.10;99.90
36594;DHT22;22603;47.900;8.146;2023-08-06T17:25:55;11.10;99.90
36594;DHT22;22603;47.900;8.146;2023-08-06T17:28:42;11.10;99.90
36594;DHT22;22603;47.900;8.146;2023-08-06T17:31:29;10.90;99.90
36594;DHT22;22603;47.900;8.146;2023-08-06T17:34:17;10.90;99.90
36594;DHT22;22603;47.900;8.146;2023-08-06T17:37:05;10.80;99.90
36594;DHT22;22603;47.900;8.146;2023-08-06T17:39:52;10.60;99.90